Time;durP1;ratioP1;P1;durP2;ratioP2;P2;SDS_P1;SDS_P2;PMS_P1;PMS_P2;Temp;Humidity;BMP_temperature;BMP_pressure;BME280_temperature;BME280_humidity;BME280_pressure;Samples;Min_cycle;Max_cycle;Signal;HPM_P1;HPM_P2
2023/06/16 00:00:14;;;;;;;9.35;3.80;;;16.80;69.00;;;;;;5047513;28;20032;-62
2023/06/16 00:02:41;;;;;;;8.98;4.00;;;16.80;69.10;;;;;;5044313;28;20069;-62
2023/06/16 00:05:12;;;;;;;7.50;4.05;;;16.70;69.20;;;;;;5046444;28;20083;-62
2023/06/16 00:07:39;;;;;;;6.00;3.75;;;16.60;69.40;;;;;;5048145;28;20045;-62
2023/06/16 00:10:06;;;;;;;7.78;4.13;;;16.60;69.50;;;;;;5045063;28;20041;-62
2023/06/16 00:12:33;;;;;;;7.72;3.90;;;16.60;69.80;;;;;;5030701;28;20048;-62
2023/06/16 00:14:59;;;;;;;8.63;4.10;;;16.60;70.10;;;;;;5050504;28;20486;-62
2023/06/16 00:17:26;;;;;;;6.55;3.90;;;16.50;70.20;;;;;;5052112;28;20025;-62
2023/06/16 00:19:57;;;;;;;8.00;4.10;;;16.50;70.40;;;;;;5037207;28;20041;-62
2023/06/16 00:22:26;;;;;;;8.43;4.10;;;16.50;70.70;;;;;;5042278;28;20120;-62
2023/06/16 00:24:53;;;;;;;11.88;4.22;;;16.50;71.00;;;;;;5027925;28;20049;-62
2023/06/16 00:27:22;;;;;;;10.45;4.45;;;16.40;71.10;;;;;;5034436;28;20071;-62
2023/06/16 00:29:48;;;;;;;11.85;4.10;;;16.40;71.20;;;;;;5041945;28;20028;-62
2023/06/16 00:32:14;;;;;;;10.63;4.32;;;16.30;71.20;;;;;;5023251;28;20502;-62
2023/06/16 00:34:40;;;;;;;8.73;4.40;;;16.20;71.40;;;;;;5045058;28;20037;-62
2023/06/16 00:37:05;;;;;;;14.27;4.75;;;16.20;71.60;;;;;;5050130;28;20124;-62
2023/06/16 00:39:31;;;;;;;10.82;4.32;;;16.10;71.60;;;;;;5051928;28;20091;-62
2023/06/16 00:41:57;;;;;;;7.25;3.67;;;16.10;71.70;;;;;;5038044;28;20033;-62
2023/06/16 00:44:23;;;;;;;8.82;3.72;;;16.00;71.80;;;;;;5042484;28;20044;-62
2023/06/16 00:46:49;;;;;;;7.50;4.15;;;15.90;72.00;;;;;;5045609;28;20123;-62
2023/06/16 00:49:15;;;;;;;6.70;3.92;;;15.90;72.20;;;;;;5047073;28;20030;-62
2023/06/16 00:51:41;;;;;;;8.68;4.50;;;15.80;72.40;;;;;;5038178;28;20048;-63
2023/06/16 00:54:10;;;;;;;7.22;3.97;;;15.80;72.50;;;;;;5044895;28;20069;-62
2023/06/16 00:56:36;;;;;;;7.15;4.30;;;15.70;72.80;;;;;;5051790;28;20063;-63
2023/06/16 00:59:02;;;;;;;6.35;4.38;;;15.70;73.10;;;;;;5036880;28;20053;-63
2023/06/16 01:01:29;;;;;;;6.68;3.97;;;15.70;73.30;;;;;;5053724;28;20037;-62
2023/06/16 01:03:55;;;;;;;8.75;4.45;;;15.60;73.20;;;;;;5043561;28;20059;-62
2023/06/16 01:06:43;;;;;;;6.25;4.18;;;15.60;73.30;;;;;;5058841;28;20060;-62
2023/06/16 01:09:31;;;;;;;7.97;4.22;;;15.60;73.70;;;;;;5038770;28;20491;-62
2023/06/16 01:12:07;;;;;;;10.30;4.65;;;15.50;73.90;;;;;;5052272;28;20059;-62
2023/06/16 01:14:48;;;;;;;7.78;4.22;;;15.50;74.00;;;;;;5049256;28;20060;-62
2023/06/16 01:17:15;;;;;;;8.73;4.07;;;15.40;74.30;;;;;;5032533;28;20045;-62
2023/06/16 01:20:31;;;;;;;8.07;4.35;;;15.40;74.40;;;;;;5037153;28;20064;-62
2023/06/16 01:23:15;;;;;;;9.13;4.43;;;15.40;74.90;;;;;;5028962;28;20059;-62
2023/06/16 01:25:43;;;;;;;7.32;4.38;;;15.30;74.90;;;;;;5045183;28;20040;-62
2023/06/16 01:28:11;;;;;;;7.13;4.22;;;15.30;75.00;;;;;;5029967;28;20538;-62
2023/06/16 01:30:42;;;;;;;8.40;4.45;;;15.20;75.30;;;;;;5039811;28;20052;-62
2023/06/16 01:33:11;;;;;;;9.40;4.93;;;15.30;75.60;;;;;;5036090;28;20041;-62
2023/06/16 01:35:38;;;;;;;8.48;4.30;;;15.20;75.80;;;;;;5053700;28;20049;-62
2023/06/16 01:38:05;;;;;;;9.38;4.45;;;15.20;76.00;;;;;;5033294;28;20048;-62
2023/06/16 01:40:31;;;;;;;7.95;4.10;;;15.20;76.20;;;;;;5044653;28;20047;-62
2023/06/16 01:42:58;;;;;;;8.02;4.68;;;15.10;76.40;;;;;;5018373;28;20093;-62
2023/06/16 01:45:25;;;;;;;7.07;4.30;;;15.10;76.80;;;;;;5050107;28;20041;-62
2023/06/16 01:47:51;;;;;;;7.88;4.18;;;15.10;77.20;;;;;;5046796;28;20040;-62
2023/06/16 01:50:17;;;;;;;9.63;4.57;;;15.10;77.40;;;;;;5029317;28;20499;-62
2023/06/16 01:52:42;;;;;;;7.93;4.10;;;15.00;77.30;;;;;;5038224;28;20041;-62
2023/06/16 01:55:08;;;;;;;8.05;4.43;;;14.90;77.20;;;;;;5050823;28;20029;-62
2023/06/16 01:57:35;;;;;;;7.70;4.25;;;14.90;77.10;;;;;;5035949;28;20041;-62
2023/06/16 02:00:24;;;;;;;6.95;4.07;;;14.90;77.20;;;;;;5046636;28;20128;-62
2023/06/16 02:02:53;;;;;;;8.00;4.38;;;14.90;77.60;;;;;;5040616;28;20035;-62
2023/06/16 02:05:23;;;;;;;9.98;4.47;;;14.90;77.70;;;;;;5052646;28;20037;-62
2023/06/16 02:07:52;;;;;;;7.40;4.70;;;14.90;77.90;;;;;;5049847;28;20129;-63
2023/06/16 02:10:22;;;;;;;8.30;4.70;;;14.80;78.10;;;;;;5031476;28;20108;-62
2023/06/16 02:12:49;;;;;;;6.95;4.20;;;14.80;78.30;;;;;;5044093;28;20124;-62
2023/06/16 02:15:18;;;;;;;7.40;4.30;;;14.80;78.60;;;;;;5050522;28;20075;-62
2023/06/16 02:17:44;;;;;;;6.97;4.13;;;14.70;78.90;;;;;;5018870;28;20048;-62
2023/06/16 02:20:11;;;;;;;8.90;4.60;;;14.70;79.10;;;;;;5039027;28;20037;-62
2023/06/16 02:22:37;;;;;;;11.85;5.00;;;14.70;79.40;;;;;;5026060;28;20049;-62
2023/06/16 02:25:03;;;;;;;6.80;4.60;;;14.70;79.60;;;;;;5032293;28;20045;-62
2023/06/16 02:27:29;;;;;;;9.77;4.80;;;14.70;79.90;;;;;;5041503;28;20037;-62
2023/06/16 02:29:54;;;;;;;8.60;4.40;;;14.60;80.20;;;;;;5048883;28;20045;-62
2023/06/16 02:32:20;;;;;;;8.80;4.88;;;14.60;80.30;;;;;;5042920;28;20036;-62
2023/06/16 02:34:46;;;;;;;9.15;4.72;;;14.60;80.70;;;;;;5048675;28;20052;-62
2023/06/16 02:37:13;;;;;;;7.65;4.95;;;14.60;80.80;;;;;;5041106;28;20037;-62
2023/06/16 02:39:39;;;;;;;7.45;5.28;;;14.60;80.90;;;;;;5038486;28;20057;-62
2023/06/16 02:42:05;;;;;;;10.05;5.50;;;14.70;81.20;;;;;;5032956;28;20071;-62
2023/06/16 02:44:31;;;;;;;8.45;6.00;;;14.70;81.50;;;;;;5055158;28;20043;-62
2023/06/16 02:46:57;;;;;;;12.45;6.25;;;14.70;81.80;;;;;;5024244;28;20041;-62
2023/06/16 02:49:23;;;;;;;8.23;5.72;;;14.80;82.30;;;;;;5051852;28;20048;-62
2023/06/16 02:54:17;;;;;;;10.65;5.68;;;14.90;82.90;;;;;;5033951;28;19928;-74
2023/06/16 02:56:42;;;;;;;8.57;5.95;;;14.90;83.10;;;;;;5023249;28;20037;-74
2023/06/16 02:59:10;;;;;;;9.55;6.03;;;14.90;83.20;;;;;;5024009;28;20038;-74
2023/06/16 03:01:36;;;;;;;9.77;6.47;;;14.90;83.40;;;;;;5013216;28;20056;-74
2023/06/16 03:04:03;;;;;;;10.25;6.97;;;15.00;83.70;;;;;;5014328;28;20046;-74
2023/06/16 03:06:29;;;;;;;10.05;6.65;;;15.00;84.00;;;;;;5015389;28;20080;-74
2023/06/16 03:08:56;;;;;;;9.95;6.75;;;15.00;84.20;;;;;;5030853;28;20511;-74
2023/06/16 03:11:21;;;;;;;10.20;6.45;;;15.00;84.60;;;;;;5026507;28;20052;-74
2023/06/16 03:13:47;;;;;;;9.38;5.97;;;15.00;84.80;;;;;;5010565;28;20037;-74
2023/06/16 03:16:13;;;;;;;8.43;6.20;;;15.00;84.90;;;;;;5023529;28;20064;-74
2023/06/16 03:18:38;;;;;;;11.07;6.22;;;15.00;85.00;;;;;;5013194;28;20072;-74
2023/06/16 03:21:04;;;;;;;9.57;6.50;;;15.00;85.20;;;;;;5012855;28;20045;-74
2023/06/16 03:23:30;;;;;;;8.88;7.15;;;15.00;85.30;;;;;;5015596;28;20466;-74
2023/06/16 03:25:56;;;;;;;9.73;7.05;;;15.00;85.40;;;;;;5021860;28;20701;-74
2023/06/16 03:28:23;;;;;;;9.68;7.30;;;15.00;85.40;;;;;;5013352;28;20067;-74
2023/06/16 03:30:52;;;;;;;12.88;7.55;;;15.00;85.70;;;;;;5013061;28;20045;-74
2023/06/16 03:33:18;;;;;;;12.52;7.78;;;15.10;86.00;;;;;;5011140;28;20498;-74
2023/06/16 03:35:44;;;;;;;11.43;8.10;;;15.10;86.30;;;;;;5017827;28;20057;-74
2023/06/16 03:38:10;;;;;;;10.55;7.90;;;15.20;86.60;;;;;;5012697;28;20229;-74
2023/06/16 03:40:35;;;;;;;12.10;7.90;;;15.20;86.80;;;;;;5021858;28;20554;-74
2023/06/16 03:43:02;;;;;;;11.48;8.57;;;15.30;87.10;;;;;;5005877;28;20061;-74
2023/06/16 03:45:28;;;;;;;13.90;8.48;;;15.30;87.40;;;;;;5025689;28;20037;-74
2023/06/16 03:47:53;;;;;;;15.30;8.80;;;15.30;87.60;;;;;;5027424;28;20437;-74
2023/06/16 03:50:19;;;;;;;12.50;8.45;;;15.30;87.80;;;;;;5017024;28;20551;-74
2023/06/16 03:52:45;;;;;;;11.43;8.35;;;15.30;88.10;;;;;;5012300;28;20037;-74
2023/06/16 03:55:11;;;;;;;10.68;8.38;;;15.30;88.30;;;;;;5020151;28;20037;-74
2023/06/16 03:57:36;;;;;;;14.48;9.43;;;15.30;88.50;;;;;;5023744;28;20048;-74
2023/06/16 04:00:06;;;;;;;14.32;9.02;;;15.30;88.70;;;;;;5034125;28;20041;-74
2023/06/16 04:02:32;;;;;;;13.00;9.05;;;15.30;89.00;;;;;;5015751;28;20060;-74
2023/06/16 04:05:00;;;;;;;11.93;8.88;;;15.30;89.20;;;;;;5020661;28;20405;-74
2023/06/16 04:07:26;;;;;;;15.52;8.98;;;15.30;89.50;;;;;;5023272;28;20037;-74
2023/06/16 04:09:52;;;;;;;12.15;8.90;;;15.30;89.80;;;;;;5024812;28;20048;-74
2023/06/16 04:12:18;;;;;;;18.27;8.30;;;15.30;89.90;;;;;;5033495;28;20120;-74
2023/06/16 04:14:43;;;;;;;12.10;8.45;;;15.30;90.00;;;;;;5034083;28;20037;-74
2023/06/16 04:17:09;;;;;;;12.57;8.32;;;15.30;90.10;;;;;;5022204;28;20033;-74
2023/06/16 04:19:34;;;;;;;10.85;8.52;;;15.30;90.30;;;;;;5024784;28;20448;-74
2023/06/16 04:22:00;;;;;;;11.25;8.38;;;15.30;90.30;;;;;;5023394;28;20087;-74
2023/06/16 04:24:26;;;;;;;11.75;8.70;;;15.30;90.60;;;;;;5033802;28;20071;-74
2023/06/16 04:26:57;;;;;;;13.48;8.63;;;15.30;90.50;;;;;;5021962;28;20509;-74
2023/06/16 04:29:22;;;;;;;11.27;8.70;;;15.30;90.60;;;;;;5034212;28;20080;-74
2023/06/16 04:31:50;;;;;;;11.82;8.93;;;15.20;90.70;;;;;;5024305;28;20175;-75
2023/06/16 04:34:16;;;;;;;10.93;8.27;;;15.30;91.10;;;;;;5015076;28;20493;-74
2023/06/16 04:36:44;;;;;;;10.02;8.23;;;15.20;90.90;;;;;;5033303;28;20046;-74
2023/06/16 04:39:11;;;;;;;13.27;8.70;;;15.30;91.20;;;;;;5016079;28;20493;-74
2023/06/16 04:41:38;;;;;;;11.20;8.80;;;15.30;91.40;;;;;;5033978;28;20084;-74
2023/06/16 04:44:04;;;;;;;12.25;9.10;;;15.30;91.50;;;;;;5014986;28;20400;-74
2023/06/16 04:46:30;;;;;;;12.68;8.98;;;15.30;91.70;;;;;;5016142;28;20044;-74
2023/06/16 04:48:56;;;;;;;10.77;8.80;;;15.30;91.70;;;;;;5024973;28;20048;-74
2023/06/16 04:51:22;;;;;;;14.10;9.30;;;15.30;91.90;;;;;;5007617;28;20120;-74
2023/06/16 04:53:48;;;;;;;12.15;9.50;;;15.40;92.10;;;;;;5032343;28;20485;-74
2023/06/16 04:56:14;;;;;;;13.02;9.85;;;15.30;92.00;;;;;;5033417;28;20119;-74
2023/06/16 04:58:41;;;;;;;12.00;9.60;;;15.40;92.30;;;;;;5006716;28;20044;-74
2023/06/16 05:01:07;;;;;;;12.02;9.07;;;15.40;92.30;;;;;;5023740;28;20417;-74
2023/06/16 05:03:36;;;;;;;13.27;9.25;;;15.40;92.40;;;;;;5012717;28;20068;-74
2023/06/16 05:06:01;;;;;;;13.48;9.25;;;15.40;92.60;;;;;;5015052;28;20053;-74
2023/06/16 05:08:27;;;;;;;13.80;9.95;;;15.50;92.80;;;;;;5033354;28;20033;-74
2023/06/16 05:10:53;;;;;;;13.38;9.60;;;15.50;93.10;;;;;;5033219;28;20168;-74
2023/06/16 05:13:19;;;;;;;13.60;9.32;;;15.50;93.20;;;;;;5015949;28;20508;-74
2023/06/16 05:15:44;;;;;;;11.13;8.77;;;15.50;93.30;;;;;;5014665;28;20046;-75
2023/06/16 05:18:10;;;;;;;12.02;8.77;;;15.60;93.50;;;;;;5015763;28;20045;-74
2023/06/16 05:20:35;;;;;;;11.05;8.90;;;15.70;93.70;;;;;;5023602;28;20037;-74
2023/06/16 05:23:03;;;;;;;13.95;9.52;;;15.60;93.90;;;;;;5018458;28;20099;-74
2023/06/16 05:25:29;;;;;;;12.93;10.30;;;15.70;93.90;;;;;;4996779;28;20038;-74
2023/06/16 05:27:55;;;;;;;17.13;10.27;;;15.70;93.90;;;;;;5006909;28;20063;-76
2023/06/16 05:30:21;;;;;;;12.60;9.65;;;15.80;94.40;;;;;;5018488;28;20423;-77
2023/06/16 05:32:47;;;;;;;12.35;10.23;;;15.70;94.60;;;;;;5026732;28;20046;-76
2023/06/16 05:35:12;;;;;;;15.45;11.18;;;15.80;94.60;;;;;;5008805;28;20029;-76
2023/06/16 05:37:38;;;;;;;12.70;10.85;;;15.90;95.10;;;;;;5029609;28;20433;-76
2023/06/16 05:40:04;;;;;;;14.20;11.07;;;15.90;95.00;;;;;;5014948;28;20045;-75
2023/06/16 05:42:30;;;;;;;14.90;11.35;;;15.90;95.40;;;;;;5016722;28;20051;-76
2023/06/16 05:44:55;;;;;;;15.48;10.80;;;16.00;95.50;;;;;;5013275;28;20128;-77
2023/06/16 05:47:21;;;;;;;13.75;11.32;;;16.00;95.90;;;;;;5016113;28;20099;-77
2023/06/16 05:49:47;;;;;;;14.88;11.95;;;16.10;96.00;;;;;;5014335;28;20042;-77
2023/06/16 05:52:12;;;;;;;13.52;11.13;;;16.10;96.40;;;;;;5019652;28;20044;-76
2023/06/16 05:54:38;;;;;;;14.70;11.90;;;16.20;96.60;;;;;;5014203;28;20551;-77
2023/06/16 05:57:04;;;;;;;15.38;12.00;;;16.20;96.90;;;;;;5012126;28;20041;-77
2023/06/16 05:59:29;;;;;;;17.33;11.60;;;16.20;97.50;;;;;;5021939;28;20120;-77
2023/06/16 06:01:56;;;;;;;16.35;11.63;;;16.30;97.60;;;;;;5013807;28;20726;-76
2023/06/16 06:04:27;;;;;;;15.25;11.77;;;16.30;97.80;;;;;;5009069;28;20040;-76
2023/06/16 06:06:53;;;;;;;15.90;12.30;;;16.40;98.30;;;;;;5020415;28;20037;-75
2023/06/16 06:09:18;;;;;;;14.40;12.77;;;16.40;98.30;;;;;;5020246;28;20549;-76
2023/06/16 06:11:44;;;;;;;17.35;12.95;;;16.50;98.60;;;;;;5007053;28;20049;-75
2023/06/16 06:14:11;;;;;;;16.27;13.07;;;16.50;98.90;;;;;;5030203;28;20036;-75
2023/06/16 06:16:37;;;;;;;17.17;12.95;;;16.60;99.20;;;;;;5004420;28;20119;-76
2023/06/16 06:19:03;;;;;;;16.25;12.45;;;16.60;99.10;;;;;;5027908;28;20033;-75
2023/06/16 06:21:28;;;;;;;17.88;14.23;;;16.60;99.30;;;;;;5016861;28;20064;-75
2023/06/16 06:23:54;;;;;;;16.38;13.02;;;16.70;99.50;;;;;;5009377;28;20208;-76
2023/06/16 06:26:20;;;;;;;15.85;12.75;;;16.70;99.80;;;;;;5009235;28;20091;-77
2023/06/16 06:28:45;;;;;;;16.60;13.18;;;16.80;99.70;;;;;;5011908;28;20504;-76
2023/06/16 06:31:11;;;;;;;19.05;13.55;;;16.80;99.90;;;;;;5018540;28;20128;-76
2023/06/16 06:33:37;;;;;;;15.82;12.55;;;16.90;99.90;;;;;;5012256;28;20049;-77
2023/06/16 06:36:03;;;;;;;16.98;13.68;;;16.90;99.90;;;;;;4998849;28;20512;-75
2023/06/16 06:38:28;;;;;;;17.23;14.07;;;16.90;99.90;;;;;;5000833;28;20041;-75
2023/06/16 06:40:54;;;;;;;16.38;12.52;;;17.00;99.90;;;;;;5015060;28;20120;-76
2023/06/16 06:43:20;;;;;;;15.48;12.80;;;17.00;99.90;;;;;;5014243;28;20072;-74
2023/06/16 06:45:47;;;;;;;16.15;12.30;;;17.10;99.90;;;;;;5017702;28;20037;-74
2023/06/16 06:48:12;;;;;;;15.63;12.88;;;17.10;99.90;;;;;;4999483;28;20037;-74
2023/06/16 06:50:38;;;;;;;16.48;12.52;;;17.20;99.90;;;;;;5025296;28;20095;-74
2023/06/16 06:53:04;;;;;;;15.38;11.23;;;17.30;99.90;;;;;;5007796;28;20465;-79
2023/06/16 06:55:29;;;;;;;14.15;11.52;;;17.30;99.90;;;;;;5000884;28;20447;-76
2023/06/16 06:57:55;;;;;;;14.45;11.63;;;17.40;99.80;;;;;;5020492;28;20504;-77
2023/06/16 07:00:21;;;;;;;12.75;9.82;;;17.50;99.70;;;;;;5013613;28;20198;-74
2023/06/16 07:02:46;;;;;;;11.07;9.07;;;17.50;99.60;;;;;;5014441;28;20121;-74
2023/06/16 07:05:12;;;;;;;14.48;8.77;;;17.70;99.40;;;;;;5013864;28;20045;-75
2023/06/16 07:07:37;;;;;;;11.80;8.15;;;17.70;98.70;;;;;;5023804;28;20037;-74
2023/06/16 07:10:05;;;;;;;11.60;8.50;;;17.80;97.90;;;;;;5005280;28;20041;-74
2023/06/16 07:12:31;;;;;;;11.48;9.25;;;17.80;97.40;;;;;;5022096;28;20389;-74
2023/06/16 07:14:56;;;;;;;12.57;8.77;;;17.90;97.40;;;;;;5021755;28;20096;-75
2023/06/16 07:17:22;;;;;;;12.45;8.30;;;17.90;97.30;;;;;;5021266;28;20045;-74
2023/06/16 07:19:47;;;;;;;11.30;8.75;;;17.90;97.20;;;;;;5021793;28;20041;-74
2023/06/16 07:22:13;;;;;;;10.68;8.55;;;18.00;97.30;;;;;;5024304;28;20037;-74
2023/06/16 07:24:39;;;;;;;14.05;7.68;;;18.10;97.00;;;;;;5027173;28;20063;-74
2023/06/16 07:27:05;;;;;;;12.50;7.93;;;18.20;96.50;;;;;;5025583;28;20092;-74
2023/06/16 07:29:31;;;;;;;11.95;7.18;;;18.20;96.20;;;;;;5024856;28;20485;-74
2023/06/16 07:31:57;;;;;;;9.02;7.00;;;18.30;96.10;;;;;;5017104;28;20045;-75
2023/06/16 07:34:22;;;;;;;11.55;7.07;;;18.30;95.80;;;;;;5025156;28;20046;-74
2023/06/16 07:36:48;;;;;;;9.80;7.13;;;18.40;95.50;;;;;;5034883;28;20057;-74
2023/06/16 07:39:14;;;;;;;10.73;6.60;;;18.50;95.70;;;;;;5009518;28;20048;-74
2023/06/16 07:41:39;;;;;;;9.57;6.60;;;18.60;95.30;;;;;;5012426;28;20505;-75
2023/06/16 07:44:05;;;;;;;11.20;5.70;;;18.70;94.60;;;;;;5032964;28;20029;-75
2023/06/16 07:46:32;;;;;;;8.55;5.75;;;18.80;94.20;;;;;;5031422;28;20063;-76
2023/06/16 07:48:58;;;;;;;8.18;6.20;;;18.80;94.10;;;;;;5015190;28;20045;-75
2023/06/16 07:51:23;;;;;;;9.00;6.30;;;18.90;93.80;;;;;;5034069;28;20082;-75
2023/06/16 07:53:49;;;;;;;7.35;5.50;;;19.00;93.60;;;;;;5034438;28;20501;-76
2023/06/16 07:56:16;;;;;;;8.68;6.18;;;19.10;93.20;;;;;;5023437;28;20044;-74
2023/06/16 07:58:41;;;;;;;7.32;6.20;;;19.20;92.60;;;;;;5032751;28;20412;-76
2023/06/16 08:01:07;;;;;;;8.88;5.57;;;19.30;92.20;;;;;;5015507;28;20042;-74
2023/06/16 08:03:33;;;;;;;6.53;5.10;;;19.40;91.90;;;;;;5014615;28;20500;-74
2023/06/16 08:05:58;;;;;;;6.45;5.05;;;19.40;91.60;;;;;;5016172;28;20033;-74
2023/06/16 08:08:27;;;;;;;8.57;5.55;;;19.60;91.40;;;;;;5016332;28;20038;-75
2023/06/16 08:10:57;;;;;;;9.70;5.43;;;19.60;90.90;;;;;;5015922;28;20044;-75
2023/06/16 08:13:24;;;;;;;8.85;5.30;;;19.80;90.50;;;;;;5018341;28;20045;-74
2023/06/16 08:15:49;;;;;;;7.57;5.38;;;19.90;90.00;;;;;;5023841;28;20041;-74
2023/06/16 08:18:17;;;;;;;8.43;5.10;;;20.10;88.70;;;;;;5029459;28;20037;-74
2023/06/16 08:20:44;;;;;;;7.20;4.95;;;20.30;87.50;;;;;;5034149;28;20429;-74
2023/06/16 08:23:10;;;;;;;8.07;5.32;;;20.50;86.40;;;;;;5018145;28;20382;-75
2023/06/16 08:25:36;;;;;;;9.02;5.47;;;20.70;85.90;;;;;;5016034;28;20103;-74
2023/06/16 08:28:03;;;;;;;7.53;4.90;;;21.00;86.00;;;;;;5023669;28;20080;-74
2023/06/16 08:30:29;;;;;;;9.98;5.43;;;21.40;84.70;;;;;;5024381;28;20037;-75
2023/06/16 08:32:54;;;;;;;6.88;4.88;;;21.70;83.20;;;;;;5017982;28;20115;-76
2023/06/16 08:35:20;;;;;;;6.43;4.60;;;22.00;82.70;;;;;;5028407;28;20500;-74
2023/06/16 08:37:46;;;;;;;7.28;4.95;;;22.20;81.30;;;;;;5033942;28;20049;-75
2023/06/16 08:40:12;;;;;;;9.45;5.60;;;22.50;80.40;;;;;;5020126;28;20041;-75
2023/06/16 08:42:38;;;;;;;7.50;5.10;;;22.70;80.30;;;;;;5033568;28;20046;-75
2023/06/16 08:45:05;;;;;;;7.90;4.97;;;22.90;79.00;;;;;;5030830;28;20037;-74
2023/06/16 08:47:31;;;;;;;6.15;4.70;;;23.20;77.20;;;;;;4996886;28;20033;-75
2023/06/16 08:49:57;;;;;;;8.18;4.88;;;23.40;76.30;;;;;;5021193;28;20179;-74
2023/06/16 08:55:01;;;;;;;6.43;4.45;;;23.80;73.10;;;;;;5053708;28;20041;-77
2023/06/16 08:57:29;;;;;;;7.05;5.00;;;23.80;73.10;;;;;;5034813;28;20038;-78
2023/06/16 08:59:57;;;;;;;6.97;4.05;;;24.40;73.00;;;;;;5024055;28;20049;-78
2023/06/16 09:02:29;;;;;;;8.10;4.55;;;24.60;71.80;;;;;;5033492;28;20037;-78
2023/06/16 09:04:56;;;;;;;6.03;4.43;;;24.70;71.10;;;;;;5020343;28;20168;-77
2023/06/16 09:07:27;;;;;;;5.20;4.22;;;24.80;69.50;;;;;;4996443;28;20124;-78
2023/06/16 09:09:53;;;;;;;5.53;4.15;;;25.00;68.40;;;;;;5011059;28;20040;-78
2023/06/16 09:12:19;;;;;;;6.40;4.35;;;25.00;68.40;;;;;;5000009;28;20347;-79
2023/06/16 09:14:49;;;;;;;6.90;4.50;;;25.30;68.20;;;;;;5024264;28;20041;-78
2023/06/16 09:17:18;;;;;;;8.48;4.20;;;25.30;68.10;;;;;;5043401;28;20033;-78
2023/06/16 09:19:48;;;;;;;9.65;4.22;;;25.30;67.90;;;;;;5032242;28;20046;-79
2023/06/16 09:22:18;;;;;;;10.35;3.55;;;25.40;67.30;;;;;;5006148;28;20041;-79
2023/06/16 09:24:51;;;;;;;5.78;4.35;;;25.70;66.70;;;;;;5012867;28;20497;-77
2023/06/16 09:27:18;;;;;;;6.35;3.97;;;25.80;65.40;;;;;;5017205;28;20056;-78
2023/06/16 09:29:50;;;;;;;7.68;4.38;;;26.00;64.80;;;;;;5033454;28;20045;-76
2023/06/16 09:32:16;;;;;;;7.05;4.28;;;26.30;64.00;;;;;;5023549;28;20037;-78
2023/06/16 09:34:43;;;;;;;5.72;3.67;;;26.50;63.90;;;;;;4999772;28;20047;-78
2023/06/16 09:37:17;;;;;;;9.73;4.43;;;26.80;63.00;;;;;;4997720;28;20044;-79
2023/06/16 09:39:43;;;;;;;5.82;4.03;;;26.90;61.70;;;;;;5029597;28;20053;-77
2023/06/16 09:42:11;;;;;;;7.72;4.30;;;27.00;61.40;;;;;;5019049;28;20044;-78
2023/06/16 09:44:37;;;;;;;6.10;4.18;;;27.10;61.00;;;;;;5015314;28;20033;-78
2023/06/16 09:47:03;;;;;;;5.63;3.75;;;27.20;60.60;;;;;;4996475;28;20045;-78
2023/06/16 09:49:29;;;;;;;4.93;3.53;;;27.30;60.10;;;;;;5031017;28;20038;-79
2023/06/16 09:51:58;;;;;;;11.98;4.00;;;27.50;59.80;;;;;;5016860;28;20519;-78
2023/06/16 09:54:26;;;;;;;6.65;4.30;;;27.40;59.10;;;;;;5015999;28;20511;-79
2023/06/16 09:56:55;;;;;;;5.55;4.35;;;27.50;59.10;;;;;;5010457;28;20076;-79
2023/06/16 09:59:21;;;;;;;7.80;4.60;;;27.60;58.70;;;;;;4997959;28;20045;-78
2023/06/16 10:01:47;;;;;;;4.90;4.07;;;27.80;58.70;;;;;;4995630;28;20112;-78
2023/06/16 10:04:15;;;;;;;8.82;4.45;;;27.90;58.10;;;;;;4999218;28;20050;-79
2023/06/16 10:06:48;;;;;;;5.97;4.03;;;28.00;58.00;;;;;;5007328;28;20036;-79
2023/06/16 10:09:17;;;;;;;6.10;4.38;;;28.10;56.80;;;;;;4996000;28;20045;-79
2023/06/16 10:11:46;;;;;;;5.57;4.38;;;28.10;57.00;;;;;;5015593;28;20068;-79
2023/06/16 10:14:13;;;;;;;4.45;3.90;;;28.10;56.80;;;;;;5013355;28;20120;-78
2023/06/16 10:16:40;;;;;;;7.20;4.05;;;28.20;57.20;;;;;;5035347;28;20053;-79
2023/06/16 10:19:07;;;;;;;6.53;4.05;;;28.60;56.70;;;;;;5006580;28;20038;-79
2023/06/16 10:21:33;;;;;;;5.70;4.25;;;28.60;56.60;;;;;;5012408;28;20042;-78
2023/06/16 10:24:01;;;;;;;7.05;4.05;;;28.70;56.50;;;;;;5014559;28;20048;-79
2023/06/16 10:26:28;;;;;;;5.50;4.30;;;28.90;56.60;;;;;;5002016;28;20417;-80
2023/06/16 10:28:54;;;;;;;5.55;3.95;;;29.00;56.40;;;;;;5012653;28;20046;-79
2023/06/16 10:31:23;;;;;;;5.40;4.07;;;29.10;56.00;;;;;;5019119;28;20048;-79
2023/06/16 10:33:56;;;;;;;4.75;3.65;;;29.00;55.50;;;;;;4998862;28;20470;-79
2023/06/16 10:36:38;;;;;;;5.70;3.75;;;29.10;54.60;;;;;;5010838;28;20500;-78
2023/06/16 10:39:12;;;;;;;6.70;4.60;;;29.20;54.50;;;;;;5012957;28;20410;-78
2023/06/16 10:41:59;;;;;;;6.03;3.90;;;29.30;53.30;;;;;;4994040;28;20389;-79
2023/06/16 10:44:26;;;;;;;6.13;3.70;;;29.30;50.80;;;;;;4991632;28;20079;-79
2023/06/16 10:47:10;;;;;;;5.03;3.72;;;29.30;52.20;;;;;;4992689;28;20049;-79
2023/06/16 10:49:50;;;;;;;6.15;3.85;;;29.40;50.50;;;;;;5009301;28;20111;-78
2023/06/16 10:52:32;;;;;;;4.45;3.60;;;29.40;50.70;;;;;;4993928;28;20041;-79
2023/06/16 10:55:15;;;;;;;6.35;3.83;;;29.40;50.70;;;;;;4988575;28;20480;-78
2023/06/16 10:57:42;;;;;;;4.85;3.88;;;29.60;51.40;;;;;;4993681;28;20041;-79
2023/06/16 11:00:14;;;;;;;7.55;3.85;;;29.70;50.80;;;;;;4995811;28;20412;-80
2023/06/16 11:02:57;;;;;;;4.18;3.50;;;29.80;50.10;;;;;;5008912;28;20096;-80
2023/06/16 11:05:24;;;;;;;7.28;3.60;;;29.90;49.30;;;;;;5009746;28;20064;-78
2023/06/16 11:08:04;;;;;;;4.40;3.72;;;30.00;50.10;;;;;;5029053;28;20084;-79
2023/06/16 11:10:30;;;;;;;4.80;3.80;;;29.90;49.70;;;;;;5001585;28;20045;-80
2023/06/16 11:12:56;;;;;;;7.03;3.38;;;30.10;50.40;;;;;;4991881;28;20042;-79
2023/06/16 11:15:23;;;;;;;5.30;3.88;;;30.10;49.80;;;;;;5010258;28;20124;-80
2023/06/16 11:17:48;;;;;;;6.68;3.70;;;30.00;49.60;;;;;;4994053;28;20049;-78
2023/06/16 11:20:15;;;;;;;7.72;3.35;;;30.00;49.50;;;;;;4995061;28;20049;-80
2023/06/16 11:22:42;;;;;;;5.93;3.55;;;30.10;49.20;;;;;;5014806;28;20037;-79
2023/06/16 11:25:08;;;;;;;4.90;3.40;;;30.00;48.50;;;;;;5008064;28;20041;-80
2023/06/16 11:27:36;;;;;;;7.25;3.47;;;30.00;48.30;;;;;;5014066;28;20044;-80
2023/06/16 11:30:05;;;;;;;6.05;3.63;;;29.90;48.10;;;;;;5024375;28;20041;-79
2023/06/16 11:32:36;;;;;;;6.80;3.65;;;30.00;48.50;;;;;;5017309;28;20033;-80
2023/06/16 11:35:03;;;;;;;5.57;3.25;;;30.10;47.70;;;;;;4997010;28;20045;-80
2023/06/16 11:37:51;;;;;;;8.38;3.65;;;30.10;47.20;;;;;;5031483;28;20049;-80
2023/06/16 11:40:22;;;;;;;5.53;3.50;;;30.10;46.50;;;;;;5026388;28;20041;-80
2023/06/16 11:43:01;;;;;;;5.35;3.50;;;30.10;47.00;;;;;;4981726;28;20100;-79
2023/06/16 11:45:32;;;;;;;4.30;3.10;;;30.20;46.80;;;;;;4992757;28;20069;-79
2023/06/16 11:47:59;;;;;;;5.80;3.92;;;30.20;46.40;;;;;;4994911;28;20038;-79
2023/06/16 11:50:26;;;;;;;5.15;3.28;;;30.30;46.10;;;;;;5032073;28;20045;-80
2023/06/16 11:52:52;;;;;;;4.85;3.58;;;30.50;45.90;;;;;;5010700;28;20057;-78
2023/06/16 11:55:19;;;;;;;5.20;3.42;;;30.60;45.70;;;;;;4990672;28;20033;-79
2023/06/16 11:57:45;;;;;;;6.50;3.50;;;30.70;45.40;;;;;;5028596;28;20084;-80
2023/06/16 12:00:13;;;;;;;3.40;3.05;;;30.60;45.20;;;;;;4989871;28;20037;-78
2023/06/16 12:02:40;;;;;;;5.53;3.72;;;30.60;45.60;;;;;;5001984;28;20041;-81
2023/06/16 12:05:16;;;;;;;4.78;3.33;;;30.50;45.70;;;;;;5010593;28;20081;-79
2023/06/16 12:07:46;;;;;;;3.90;3.50;;;30.60;45.50;;;;;;5016121;28;20041;-80
2023/06/16 12:10:12;;;;;;;4.07;3.03;;;30.60;45.70;;;;;;4985090;28;20075;-79
2023/06/16 12:12:45;;;;;;;4.65;3.15;;;30.70;45.60;;;;;;4993782;28;20065;-80
2023/06/16 12:15:15;;;;;;;5.93;3.60;;;30.70;45.00;;;;;;4997439;28;20045;-79
2023/06/16 12:17:41;;;;;;;7.50;3.42;;;30.70;44.30;;;;;;4993619;28;20046;-79
2023/06/16 12:20:10;;;;;;;7.35;3.50;;;30.80;45.20;;;;;;4999107;28;20087;-79
2023/06/16 12:22:41;;;;;;;7.10;3.40;;;30.90;44.20;;;;;;4999687;28;20041;-83
2023/06/16 12:25:14;;;;;;;;;;;30.80;44.50;;;;;;5004491;28;20068;-78
2023/06/16 12:27:49;;;;;;;3.63;3.22;;;30.70;43.20;;;;;;5001419;28;20380;-80
2023/06/16 12:30:15;;;;;;;7.03;3.40;;;30.70;43.80;;;;;;4994485;28;20042;-79
2023/06/16 12:32:41;;;;;;;7.43;3.20;;;30.80;44.30;;;;;;5008463;22;20510;-64
2023/06/16 12:35:08;;;;;;;3.85;3.00;;;30.80;44.10;;;;;;5030591;28;20418;-63
2023/06/16 12:37:34;;;;;;;5.00;3.03;;;30.90;44.10;;;;;;5030876;28;20029;-63
2023/06/16 12:40:10;;;;;;;5.28;3.60;;;31.00;43.70;;;;;;5029147;28;20080;-63
2023/06/16 12:42:37;;;;;;;6.28;3.08;;;31.00;43.20;;;;;;5009741;28;20041;-63
2023/06/16 12:45:05;;;;;;;4.20;2.95;;;31.10;43.00;;;;;;5026653;28;20036;-63
2023/06/16 12:47:32;;;;;;;3.83;3.22;;;31.10;42.90;;;;;;5023313;28;20087;-63
2023/06/16 12:49:59;;;;;;;5.70;3.10;;;31.10;42.50;;;;;;5021856;28;20071;-63